sensor_id;sensor_type;location;lat;lon;timestamp;temperature;humidity
21261;DHT22;10788;47.930;9.766;2022-11-15T00:00:09;7.50;99.90
21261;DHT22;10788;47.930;9.766;2022-11-15T00:02:35;7.40;99.90
21261;DHT22;10788;47.930;9.766;2022-11-15T00:05:00;7.30;99.90
21261;DHT22;10788;47.930;9.766;2022-11-15T00:07:26;7.30;99.90
21261;DHT22;10788;47.930;9.766;2022-11-15T00:09:52;7.20;99.90
21261;DHT22;10788;47.930;9.766;2022-11-15T00:12:17;7.20;99.90
21261;DHT22;10788;47.930;9.766;2022-11-15T00:14:43;7.20;99.90
21261;DHT22;10788;47.930;9.766;2022-11-15T00:17:08;7.10;99.90
21261;DHT22;10788;47.930;9.766;2022-11-15T00:19:34;7.10;99.90
21261;DHT22;10788;47.930;9.766;2022-11-15T00:22:00;7.10;99.90
21261;DHT22;10788;47.930;9.766;2022-11-15T00:24:26;7.00;99.90
21261;DHT22;10788;47.930;9.766;2022-11-15T00:26:51;7.00;99.90
21261;DHT22;10788;47.930;9.766;2022-11-15T00:29:17;6.90;99.90
21261;DHT22;10788;47.930;9.766;2022-11-15T00:31:42;6.70;99.90
21261;DHT22;10788;47.930;9.766;2022-11-15T00:34:09;6.80;99.90
21261;DHT22;10788;47.930;9.766;2022-11-15T00:36:35;6.80;99.90
21261;DHT22;10788;47.930;9.766;2022-11-15T00:39:04;6.70;99.90
21261;DHT22;10788;47.930;9.766;2022-11-15T00:41:30;6.60;99.90
21261;DHT22;10788;47.930;9.766;2022-11-15T00:43:56;6.50;99.90
21261;DHT22;10788;47.930;9.766;2022-11-15T00:46:21;6.50;99.90
21261;DHT22;10788;47.930;9.766;2022-11-15T00:48:47;6.40;99.90
21261;DHT22;10788;47.930;9.766;2022-11-15T00:51:12;6.40;99.90
21261;DHT22;10788;47.930;9.766;2022-11-15T00:53:38;6.30;99.90
21261;DHT22;10788;47.930;9.766;2022-11-15T00:56:04;6.30;99.90
21261;DHT22;10788;47.930;9.766;2022-11-15T00:58:30;6.20;99.90
21261;DHT22;10788;47.930;9.766;2022-11-15T01:00:56;6.20;99.90
21261;DHT22;10788;47.930;9.766;2022-11-15T01:03:21;6.20;99.90
21261;DHT22;10788;47.930;9.766;2022-11-15T01:05:47;6.20;99.90
21261;DHT22;10788;47.930;9.766;2022-11-15T01:08:14;6.10;99.90
21261;DHT22;10788;47.930;9.766;2022-11-15T01:10:41;6.10;99.90
21261;DHT22;10788;47.930;9.766;2022-11-15T01:13:06;6.10;99.90
21261;DHT22;10788;47.930;9.766;2022-11-15T01:15:32;6.00;99.90
21261;DHT22;10788;47.930;9.766;2022-11-15T01:17:58;6.00;99.90
21261;DHT22;10788;47.930;9.766;2022-11-15T01:20:24;6.00;99.90
21261;DHT22;10788;47.930;9.766;2022-11-15T01:22:49;6.00;99.90
21261;DHT22;10788;47.930;9.766;2022-11-15T01:25:15;6.00;99.90
21261;DHT22;10788;47.930;9.766;2022-11-15T01:27:40;6.00;99.90
21261;DHT22;10788;47.930;9.766;2022-11-15T01:30:06;6.00;99.90
21261;DHT22;10788;47.930;9.766;2022-11-15T01:32:33;5.90;99.90
21261;DHT22;10788;47.930;9.766;2022-11-15T01:34:59;5.90;99.90
21261;DHT22;10788;47.930;9.766;2022-11-15T01:37:24;5.80;99.90
21261;DHT22;10788;47.930;9.766;2022-11-15T01:39:50;5.80;99.90
21261;DHT22;10788;47.930;9.766;2022-11-15T01:42:16;5.70;99.90
21261;DHT22;10788;47.930;9.766;2022-11-15T01:44:44;5.70;99.90
21261;DHT22;10788;47.930;9.766;2022-11-15T01:47:24;5.70;99.90
21261;DHT22;10788;47.930;9.766;2022-11-15T01:52:25;5.70;99.90
21261;DHT22;10788;47.930;9.766;2022-11-15T01:54:56;5.70;99.90
21261;DHT22;10788;47.930;9.766;2022-11-15T01:57:24;5.70;99.90
21261;DHT22;10788;47.930;9.766;2022-11-15T01:59:50;5.60;99.90
21261;DHT22;10788;47.930;9.766;2022-11-15T02:02:16;5.60;99.90
21261;DHT22;10788;47.930;9.766;2022-11-15T02:04:44;5.60;99.90
21261;DHT22;10788;47.930;9.766;2022-11-15T02:07:13;5.50;99.90
21261;DHT22;10788;47.930;9.766;2022-11-15T02:09:40;5.50;99.90
21261;DHT22;10788;47.930;9.766;2022-11-15T02:12:07;5.40;99.90
21261;DHT22;10788;47.930;9.766;2022-11-15T02:14:34;5.40;99.90
21261;DHT22;10788;47.930;9.766;2022-11-15T02:20:08;5.40;99.90
21261;DHT22;10788;47.930;9.766;2022-11-15T02:31:49;5.30;99.90
21261;DHT22;10788;47.930;9.766;2022-11-15T02:45:09;5.20;99.90
21261;DHT22;10788;47.930;9.766;2022-11-15T02:47:42;5.20;99.90
21261;DHT22;10788;47.930;9.766;2022-11-15T02:50:10;5.20;99.90
21261;DHT22;10788;47.930;9.766;2022-11-15T02:52:37;5.30;99.90
21261;DHT22;10788;47.930;9.766;2022-11-15T02:55:03;5.20;99.90
21261;DHT22;10788;47.930;9.766;2022-11-15T03:00:15;5.20;99.90
21261;DHT22;10788;47.930;9.766;2022-11-15T03:11:21;4.80;99.90
21261;DHT22;10788;47.930;9.766;2022-11-15T03:13:58;4.70;99.90
21261;DHT22;10788;47.930;9.766;2022-11-15T03:16:32;4.60;99.90
21261;DHT22;10788;47.930;9.766;2022-11-15T03:19:19;4.50;99.90
21261;DHT22;10788;47.930;9.766;2022-11-15T03:21:50;4.50;99.90
21261;DHT22;10788;47.930;9.766;2022-11-15T03:24:18;4.50;99.90
21261;DHT22;10788;47.930;9.766;2022-11-15T03:26:45;4.60;99.90
21261;DHT22;10788;47.930;9.766;2022-11-15T03:29:34;4.60;99.90
21261;DHT22;10788;47.930;9.766;2022-11-15T03:32:12;4.70;99.90
21261;DHT22;10788;47.930;9.766;2022-11-15T03:34:50;4.70;99.90
21261;DHT22;10788;47.930;9.766;2022-11-15T03:37:21;4.70;99.90
21261;DHT22;10788;47.930;9.766;2022-11-15T03:39:47;4.70;99.90
21261;DHT22;10788;47.930;9.766;2022-11-15T03:42:30;4.70;99.90
21261;DHT22;10788;47.930;9.766;2022-11-15T03:45:12;4.70;99.90
21261;DHT22;10788;47.930;9.766;2022-11-15T03:47:44;4.60;99.90
21261;DHT22;10788;47.930;9.766;2022-11-15T03:50:14;4.60;99.90
21261;DHT22;10788;47.930;9.766;2022-11-15T03:52:41;4.60;99.90
21261;DHT22;10788;47.930;9.766;2022-11-15T03:55:10;4.50;99.90
21261;DHT22;10788;47.930;9.766;2022-11-15T03:57:36;4.40;99.90
21261;DHT22;10788;47.930;9.766;2022-11-15T04:00:04;4.40;99.90
21261;DHT22;10788;47.930;9.766;2022-11-15T04:02:30;4.40;99.90
21261;DHT22;10788;47.930;9.766;2022-11-15T04:04:55;4.50;99.90
21261;DHT22;10788;47.930;9.766;2022-11-15T04:07:21;4.40;99.90
21261;DHT22;10788;47.930;9.766;2022-11-15T04:09:46;4.50;99.90
21261;DHT22;10788;47.930;9.766;2022-11-15T04:12:28;4.50;99.90
21261;DHT22;10788;47.930;9.766;2022-11-15T04:15:07;4.50;99.90
21261;DHT22;10788;47.930;9.766;2022-11-15T04:17:39;4.50;99.90
21261;DHT22;10788;47.930;9.766;2022-11-15T04:20:08;4.50;99.90
21261;DHT22;10788;47.930;9.766;2022-11-15T04:22:54;4.60;99.90
21261;DHT22;10788;47.930;9.766;2022-11-15T04:25:39;4.60;99.90
21261;DHT22;10788;47.930;9.766;2022-11-15T04:28:05;4.50;99.90
21261;DHT22;10788;47.930;9.766;2022-11-15T04:30:30;4.40;99.90
21261;DHT22;10788;47.930;9.766;2022-11-15T04:32:56;4.50;99.90
21261;DHT22;10788;47.930;9.766;2022-11-15T04:35:22;4.50;99.90
21261;DHT22;10788;47.930;9.766;2022-11-15T04:37:47;4.50;99.90
21261;DHT22;10788;47.930;9.766;2022-11-15T04:40:13;4.60;99.90
21261;DHT22;10788;47.930;9.766;2022-11-15T04:42:41;4.40;99.90
21261;DHT22;10788;47.930;9.766;2022-11-15T04:45:07;4.50;99.90
21261;DHT22;10788;47.930;9.766;2022-11-15T04:47:33;4.50;99.90
21261;DHT22;10788;47.930;9.766;2022-11-15T04:49:58;4.60;99.90
21261;DHT22;10788;47.930;9.766;2022-11-15T04:52:24;4.50;99.90
21261;DHT22;10788;47.930;9.766;2022-11-15T04:54:50;4.50;99.90
21261;DHT22;10788;47.930;9.766;2022-11-15T04:57:15;4.50;99.90
21261;DHT22;10788;47.930;9.766;2022-11-15T04:59:41;4.50;99.90
21261;DHT22;10788;47.930;9.766;2022-11-15T05:02:06;4.40;99.90
21261;DHT22;10788;47.930;9.766;2022-11-15T05:04:32;4.40;99.90
21261;DHT22;10788;47.930;9.766;2022-11-15T05:06:57;4.40;99.90
21261;DHT22;10788;47.930;9.766;2022-11-15T05:09:23;4.30;99.90
21261;DHT22;10788;47.930;9.766;2022-11-15T05:11:49;4.30;99.90
21261;DHT22;10788;47.930;9.766;2022-11-15T05:14:15;4.30;99.90
21261;DHT22;10788;47.930;9.766;2022-11-15T05:16:40;4.30;99.90
21261;DHT22;10788;47.930;9.766;2022-11-15T05:19:06;4.30;99.90
21261;DHT22;10788;47.930;9.766;2022-11-15T05:21:32;4.40;99.90
21261;DHT22;10788;47.930;9.766;2022-11-15T05:23:58;4.30;99.90
21261;DHT22;10788;47.930;9.766;2022-11-15T05:26:24;4.30;99.90
21261;DHT22;10788;47.930;9.766;2022-11-15T05:28:57;4.30;99.90
21261;DHT22;10788;47.930;9.766;2022-11-15T05:31:24;4.30;99.90
21261;DHT22;10788;47.930;9.766;2022-11-15T05:33:51;4.30;99.90
21261;DHT22;10788;47.930;9.766;2022-11-15T05:36:27;4.30;99.90
21261;DHT22;10788;47.930;9.766;2022-11-15T05:38:54;4.30;99.90
21261;DHT22;10788;47.930;9.766;2022-11-15T05:41:24;4.20;99.90
21261;DHT22;10788;47.930;9.766;2022-11-15T05:43:51;4.20;99.90
21261;DHT22;10788;47.930;9.766;2022-11-15T05:46:17;4.20;99.90
21261;DHT22;10788;47.930;9.766;2022-11-15T05:48:46;4.10;99.90
21261;DHT22;10788;47.930;9.766;2022-11-15T05:51:14;4.10;99.90
21261;DHT22;10788;47.930;9.766;2022-11-15T05:53:40;4.10;99.90
21261;DHT22;10788;47.930;9.766;2022-11-15T05:56:06;4.10;99.90
21261;DHT22;10788;47.930;9.766;2022-11-15T05:58:34;4.10;99.90
21261;DHT22;10788;47.930;9.766;2022-11-15T06:01:00;4.10;99.90
21261;DHT22;10788;47.930;9.766;2022-11-15T06:03:26;4.10;99.90
21261;DHT22;10788;47.930;9.766;2022-11-15T06:05:51;4.00;99.90
21261;DHT22;10788;47.930;9.766;2022-11-15T06:08:17;4.00;99.90
21261;DHT22;10788;47.930;9.766;2022-11-15T06:10:42;4.00;99.90
21261;DHT22;10788;47.930;9.766;2022-11-15T06:13:08;4.00;99.90
21261;DHT22;10788;47.930;9.766;2022-11-15T06:15:34;4.00;99.90
21261;DHT22;10788;47.930;9.766;2022-11-15T06:18:00;4.10;99.90
21261;DHT22;10788;47.930;9.766;2022-11-15T06:20:27;4.10;99.90
21261;DHT22;10788;47.930;9.766;2022-11-15T06:23:03;4.10;99.90
21261;DHT22;10788;47.930;9.766;2022-11-15T06:25:30;4.10;99.90
21261;DHT22;10788;47.930;9.766;2022-11-15T06:27:57;4.10;99.90
21261;DHT22;10788;47.930;9.766;2022-11-15T06:30:24;4.10;99.90
21261;DHT22;10788;47.930;9.766;2022-11-15T06:32:50;4.00;99.90
21261;DHT22;10788;47.930;9.766;2022-11-15T06:35:16;4.00;99.90
21261;DHT22;10788;47.930;9.766;2022-11-15T06:37:42;3.90;99.90
21261;DHT22;10788;47.930;9.766;2022-11-15T06:40:09;3.90;99.90
21261;DHT22;10788;47.930;9.766;2022-11-15T06:42:35;3.90;99.90
21261;DHT22;10788;47.930;9.766;2022-11-15T06:45:01;3.90;99.90
21261;DHT22;10788;47.930;9.766;2022-11-15T06:47:27;3.90;99.90
21261;DHT22;10788;47.930;9.766;2022-11-15T06:49:55;3.90;99.90
21261;DHT22;10788;47.930;9.766;2022-11-15T06:52:21;3.90;99.90
21261;DHT22;10788;47.930;9.766;2022-11-15T06:54:47;3.90;99.90
21261;DHT22;10788;47.930;9.766;2022-11-15T06:57:13;3.90;99.90
21261;DHT22;10788;47.930;9.766;2022-11-15T06:59:38;3.90;99.90
21261;DHT22;10788;47.930;9.766;2022-11-15T07:02:04;4.10;99.90
21261;DHT22;10788;47.930;9.766;2022-11-15T07:04:30;4.00;99.90
21261;DHT22;10788;47.930;9.766;2022-11-15T07:06:56;4.00;99.90
21261;DHT22;10788;47.930;9.766;2022-11-15T07:09:22;4.00;99.90
21261;DHT22;10788;47.930;9.766;2022-11-15T07:11:47;4.00;99.90
21261;DHT22;10788;47.930;9.766;2022-11-15T07:14:13;4.10;99.90
21261;DHT22;10788;47.930;9.766;2022-11-15T07:16:39;4.10;99.90
21261;DHT22;10788;47.930;9.766;2022-11-15T07:19:04;4.20;99.90
21261;DHT22;10788;47.930;9.766;2022-11-15T07:21:30;4.20;99.90
21261;DHT22;10788;47.930;9.766;2022-11-15T07:23:55;4.20;99.90
21261;DHT22;10788;47.930;9.766;2022-11-15T07:26:21;4.30;99.90
21261;DHT22;10788;47.930;9.766;2022-11-15T07:28:47;4.30;99.90
21261;DHT22;10788;47.930;9.766;2022-11-15T07:31:12;4.50;99.90
21261;DHT22;10788;47.930;9.766;2022-11-15T07:33:38;4.60;99.90
21261;DHT22;10788;47.930;9.766;2022-11-15T07:36:05;4.80;99.90
21261;DHT22;10788;47.930;9.766;2022-11-15T07:38:31;5.00;99.90
21261;DHT22;10788;47.930;9.766;2022-11-15T07:40:59;5.20;99.90
21261;DHT22;10788;47.930;9.766;2022-11-15T07:43:25;5.40;99.90
21261;DHT22;10788;47.930;9.766;2022-11-15T07:45:53;5.60;99.90
21261;DHT22;10788;47.930;9.766;2022-11-15T07:48:19;5.80;99.90
21261;DHT22;10788;47.930;9.766;2022-11-15T07:50:44;6.10;99.90
21261;DHT22;10788;47.930;9.766;2022-11-15T07:53:10;6.30;99.90
21261;DHT22;10788;47.930;9.766;2022-11-15T07:55:36;6.50;99.90
21261;DHT22;10788;47.930;9.766;2022-11-15T08:00:28;7.20;99.90
21261;DHT22;10788;47.930;9.766;2022-11-15T08:03:08;7.40;99.90
21261;DHT22;10788;47.930;9.766;2022-11-15T08:05:35;7.60;99.90
21261;DHT22;10788;47.930;9.766;2022-11-15T08:08:01;7.90;99.90
21261;DHT22;10788;47.930;9.766;2022-11-15T08:10:27;7.90;99.90
21261;DHT22;10788;47.930;9.766;2022-11-15T08:13:15;8.10;99.90
21261;DHT22;10788;47.930;9.766;2022-11-15T08:15:41;8.30;99.90
21261;DHT22;10788;47.930;9.766;2022-11-15T08:18:13;8.70;99.90
21261;DHT22;10788;47.930;9.766;2022-11-15T08:20:40;8.90;99.90
21261;DHT22;10788;47.930;9.766;2022-11-15T08:23:06;9.30;99.90
21261;DHT22;10788;47.930;9.766;2022-11-15T08:25:34;9.60;99.90
21261;DHT22;10788;47.930;9.766;2022-11-15T08:28:03;9.70;99.90
21261;DHT22;10788;47.930;9.766;2022-11-15T08:30:29;10.10;99.90
21261;DHT22;10788;47.930;9.766;2022-11-15T08:32:56;10.30;99.90
21261;DHT22;10788;47.930;9.766;2022-11-15T08:35:23;10.60;99.90
21261;DHT22;10788;47.930;9.766;2022-11-15T08:37:49;10.80;99.90
21261;DHT22;10788;47.930;9.766;2022-11-15T08:40:15;11.10;99.90
21261;DHT22;10788;47.930;9.766;2022-11-15T08:42:41;11.20;99.90
21261;DHT22;10788;47.930;9.766;2022-11-15T08:45:08;11.40;99.90
21261;DHT22;10788;47.930;9.766;2022-11-15T08:47:34;11.60;99.90
21261;DHT22;10788;47.930;9.766;2022-11-15T08:49:59;11.70;99.90
21261;DHT22;10788;47.930;9.766;2022-11-15T08:52:25;11.70;99.90
21261;DHT22;10788;47.930;9.766;2022-11-15T08:54:51;11.90;99.90
21261;DHT22;10788;47.930;9.766;2022-11-15T08:57:16;12.00;99.90
21261;DHT22;10788;47.930;9.766;2022-11-15T08:59:42;12.20;99.90
21261;DHT22;10788;47.930;9.766;2022-11-15T09:02:12;12.20;99.90
21261;DHT22;10788;47.930;9.766;2022-11-15T09:04:42;12.30;99.90
21261;DHT22;10788;47.930;9.766;2022-11-15T09:07:11;12.30;99.90
21261;DHT22;10788;47.930;9.766;2022-11-15T09:09:38;12.30;99.90
21261;DHT22;10788;47.930;9.766;2022-11-15T09:12:05;12.30;99.90
21261;DHT22;10788;47.930;9.766;2022-11-15T09:14:31;12.30;99.90
21261;DHT22;10788;47.930;9.766;2022-11-15T09:16:57;12.30;99.90
21261;DHT22;10788;47.930;9.766;2022-11-15T09:19:22;12.20;99.90
21261;DHT22;10788;47.930;9.766;2022-11-15T09:21:48;12.10;99.90
21261;DHT22;10788;47.930;9.766;2022-11-15T09:24:13;12.20;99.90
21261;DHT22;10788;47.930;9.766;2022-11-15T09:26:40;12.20;99.90
21261;DHT22;10788;47.930;9.766;2022-11-15T09:29:05;12.20;99.90
21261;DHT22;10788;47.930;9.766;2022-11-15T09:31:31;12.10;99.90
21261;DHT22;10788;47.930;9.766;2022-11-15T09:33:56;12.10;99.90
21261;DHT22;10788;47.930;9.766;2022-11-15T09:36:22;12.30;99.90
21261;DHT22;10788;47.930;9.766;2022-11-15T09:38:48;12.30;99.90
21261;DHT22;10788;47.930;9.766;2022-11-15T09:48:59;12.40;99.90
21261;DHT22;10788;47.930;9.766;2022-11-15T09:56:42;12.40;99.90
21261;DHT22;10788;47.930;9.766;2022-11-15T10:02:12;12.30;99.90
21261;DHT22;10788;47.930;9.766;2022-11-15T10:04:42;12.20;99.90
21261;DHT22;10788;47.930;9.766;2022-11-15T10:07:27;12.00;99.90
21261;DHT22;10788;47.930;9.766;2022-11-15T10:10:00;12.00;99.90
21261;DHT22;10788;47.930;9.766;2022-11-15T10:12:29;11.90;99.90
21261;DHT22;10788;47.930;9.766;2022-11-15T10:15:10;11.90;99.90
21261;DHT22;10788;47.930;9.766;2022-11-15T10:18:01;11.80;99.90
21261;DHT22;10788;47.930;9.766;2022-11-15T10:20:29;11.70;99.90
21261;DHT22;10788;47.930;9.766;2022-11-15T10:23:16;11.60;99.90
21261;DHT22;10788;47.930;9.766;2022-11-15T10:25:42;11.60;99.90
21261;DHT22;10788;47.930;9.766;2022-11-15T10:30:43;11.50;99.90
21261;DHT22;10788;47.930;9.766;2022-11-15T10:33:33;11.60;99.90
21261;DHT22;10788;47.930;9.766;2022-11-15T10:43:42;11.70;99.90
21261;DHT22;10788;47.930;9.766;2022-11-15T10:46:23;11.70;99.90
21261;DHT22;10788;47.930;9.766;2022-11-15T10:48:50;11.60;99.90
21261;DHT22;10788;47.930;9.766;2022-11-15T10:51:27;11.60;99.90
21261;DHT22;10788;47.930;9.766;2022-11-15T10:53:58;11.60;99.90
21261;DHT22;10788;47.930;9.766;2022-11-15T10:56:26;11.70;99.90
21261;DHT22;10788;47.930;9.766;2022-11-15T10:58:55;11.80;99.90
21261;DHT22;10788;47.930;9.766;2022-11-15T11:01:26;11.60;99.90
21261;DHT22;10788;47.930;9.766;2022-11-15T11:04:05;11.70;99.90
21261;DHT22;10788;47.930;9.766;2022-11-15T11:07:08;11.80;99.90
21261;DHT22;10788;47.930;9.766;2022-11-15T11:09:39;11.90;99.90
21261;DHT22;10788;47.930;9.766;2022-11-15T11:12:10;11.90;99.90
21261;DHT22;10788;47.930;9.766;2022-11-15T11:14:38;12.00;99.90
21261;DHT22;10788;47.930;9.766;2022-11-15T11:17:16;12.10;99.90
21261;DHT22;10788;47.930;9.766;2022-11-15T11:19:49;12.20;99.90
21261;DHT22;10788;47.930;9.766;2022-11-15T11:25:03;12.30;99.90
21261;DHT22;10788;47.930;9.766;2022-11-15T11:33:09;12.40;99.90
21261;DHT22;10788;47.930;9.766;2022-11-15T11:44:37;12.10;99.90
21261;DHT22;10788;47.930;9.766;2022-11-15T11:47:19;12.10;99.90
21261;DHT22;10788;47.930;9.766;2022-11-15T11:49:59;12.10;99.90
21261;DHT22;10788;47.930;9.766;2022-11-15T11:52:33;12.00;99.90
21261;DHT22;10788;47.930;9.766;2022-11-15T11:55:34;11.90;99.90
21261;DHT22;10788;47.930;9.766;2022-11-15T12:00:33;11.90;99.90
21261;DHT22;10788;47.930;9.766;2022-11-15T12:10:46;11.50;99.90
21261;DHT22;10788;47.930;9.766;2022-11-15T12:13:18;11.50;99.90
21261;DHT22;10788;47.930;9.766;2022-11-15T12:15:56;11.60;99.90
21261;DHT22;10788;47.930;9.766;2022-11-15T12:18:23;11.70;99.90
21261;DHT22;10788;47.930;9.766;2022-11-15T12:21:01;11.60;99.90
21261;DHT22;10788;47.930;9.766;2022-11-15T12:23:32;11.70;99.90
21261;DHT22;10788;47.930;9.766;2022-11-15T12:26:10;11.70;99.90
21261;DHT22;10788;47.930;9.766;2022-11-15T12:28:57;11.70;99.90
21261;DHT22;10788;47.930;9.766;2022-11-15T12:34:03;11.90;99.90
21261;DHT22;10788;47.930;9.766;2022-11-15T12:36:34;11.70;99.90
21261;DHT22;10788;47.930;9.766;2022-11-15T12:39:01;11.70;99.90
21261;DHT22;10788;47.930;9.766;2022-11-15T12:41:39;11.80;99.90
21261;DHT22;10788;47.930;9.766;2022-11-15T12:59:55;11.80;99.90
21261;DHT22;10788;47.930;9.766;2022-11-15T13:02:40;11.80;99.90
21261;DHT22;10788;47.930;9.766;2022-11-15T13:17:56;11.60;99.90
21261;DHT22;10788;47.930;9.766;2022-11-15T13:20:32;11.50;99.90
21261;DHT22;10788;47.930;9.766;2022-11-15T13:23:08;11.30;99.90
21261;DHT22;10788;47.930;9.766;2022-11-15T13:35:52;11.20;99.90
21261;DHT22;10788;47.930;9.766;2022-11-15T13:38:30;11.30;99.90
21261;DHT22;10788;47.930;9.766;2022-11-15T13:40:57;11.20;99.90
21261;DHT22;10788;47.930;9.766;2022-11-15T13:43:26;11.10;99.90
21261;DHT22;10788;47.930;9.766;2022-11-15T13:46:07;11.10;99.90
21261;DHT22;10788;47.930;9.766;2022-11-15T13:48:33;11.00;99.90
21261;DHT22;10788;47.930;9.766;2022-11-15T13:51:03;11.00;99.90
21261;DHT22;10788;47.930;9.766;2022-11-15T13:53:32;11.00;99.90
21261;DHT22;10788;47.930;9.766;2022-11-15T13:55:58;11.00;99.90
21261;DHT22;10788;47.930;9.766;2022-11-15T13:58:25;11.00;99.90
21261;DHT22;10788;47.930;9.766;2022-11-15T14:01:02;11.00;99.90
21261;DHT22;10788;47.930;9.766;2022-11-15T14:03:32;11.00;99.90
21261;DHT22;10788;47.930;9.766;2022-11-15T14:06:15;10.90;99.90
21261;DHT22;10788;47.930;9.766;2022-11-15T14:08:57;10.90;99.90
21261;DHT22;10788;47.930;9.766;2022-11-15T14:11:23;10.90;99.90
21261;DHT22;10788;47.930;9.766;2022-11-15T14:16:45;10.90;99.90
21261;DHT22;10788;47.930;9.766;2022-11-15T14:19:33;10.90;99.90
21261;DHT22;10788;47.930;9.766;2022-11-15T14:24:34;10.80;99.90
21261;DHT22;10788;47.930;9.766;2022-11-15T14:27:25;10.90;99.90
21261;DHT22;10788;47.930;9.766;2022-11-15T14:29:52;10.90;99.90
21261;DHT22;10788;47.930;9.766;2022-11-15T14:32:47;10.90;99.90
21261;DHT22;10788;47.930;9.766;2022-11-15T14:35:19;10.90;99.90
21261;DHT22;10788;47.930;9.766;2022-11-15T14:37:45;10.80;99.90
21261;DHT22;10788;47.930;9.766;2022-11-15T14:40:18;10.80;99.90
21261;DHT22;10788;47.930;9.766;2022-11-15T14:42:44;10.90;99.90
21261;DHT22;10788;47.930;9.766;2022-11-15T14:45:16;10.90;99.90
21261;DHT22;10788;47.930;9.766;2022-11-15T14:47:42;10.90;99.90
21261;DHT22;10788;47.930;9.766;2022-11-15T14:50:18;10.80;99.90
21261;DHT22;10788;47.930;9.766;2022-11-15T14:52:44;10.90;99.90
21261;DHT22;10788;47.930;9.766;2022-11-15T14:55:20;10.90;99.90
21261;DHT22;10788;47.930;9.766;2022-11-15T14:57:47;10.90;99.90
21261;DHT22;10788;47.930;9.766;2022-11-15T15:00:13;10.80;99.90
21261;DHT22;10788;47.930;9.766;2022-11-15T15:02:40;10.80;99.90
21261;DHT22;10788;47.930;9.766;2022-11-15T15:05:16;10.80;99.90
21261;DHT22;10788;47.930;9.766;2022-11-15T15:07:42;10.80;99.90
21261;DHT22;10788;47.930;9.766;2022-11-15T15:10:10;10.80;99.90
21261;DHT22;10788;47.930;9.766;2022-11-15T15:12:38;10.70;99.90
21261;DHT22;10788;47.930;9.766;2022-11-15T15:15:05;10.60;99.90
21261;DHT22;10788;47.930;9.766;2022-11-15T15:17:31;10.50;99.90
21261;DHT22;10788;47.930;9.766;2022-11-15T15:19:56;10.50;99.90
21261;DHT22;10788;47.930;9.766;2022-11-15T15:22:22;10.50;99.90
21261;DHT22;10788;47.930;9.766;2022-11-15T15:24:51;10.40;99.90
21261;DHT22;10788;47.930;9.766;2022-11-15T15:27:17;10.40;99.90
21261;DHT22;10788;47.930;9.766;2022-11-15T15:29:42;10.40;99.90
21261;DHT22;10788;47.930;9.766;2022-11-15T15:32:09;10.40;99.90
21261;DHT22;10788;47.930;9.766;2022-11-15T15:34:35;10.40;99.90
21261;DHT22;10788;47.930;9.766;2022-11-15T15:39:54;10.40;99.90
21261;DHT22;10788;47.930;9.766;2022-11-15T15:42:21;10.40;99.90
21261;DHT22;10788;47.930;9.766;2022-11-15T15:44:48;10.50;99.90
21261;DHT22;10788;47.930;9.766;2022-11-15T15:47:18;10.40;99.90
21261;DHT22;10788;47.930;9.766;2022-11-15T15:49:45;10.40;99.90
21261;DHT22;10788;47.930;9.766;2022-11-15T15:52:10;10.40;99.90
21261;DHT22;10788;47.930;9.766;2022-11-15T15:54:37;10.30;99.90
21261;DHT22;10788;47.930;9.766;2022-11-15T15:57:03;10.40;99.90
21261;DHT22;10788;47.930;9.766;2022-11-15T15:59:30;10.40;99.90
21261;DHT22;10788;47.930;9.766;2022-11-15T16:01:56;10.40;99.90
21261;DHT22;10788;47.930;9.766;2022-11-15T16:04:21;10.30;99.90
21261;DHT22;10788;47.930;9.766;2022-11-15T16:06:47;10.50;99.90
21261;DHT22;10788;47.930;9.766;2022-11-15T16:09:17;10.40;99.90
21261;DHT22;10788;47.930;9.766;2022-11-15T16:11:45;10.40;99.90
21261;DHT22;10788;47.930;9.766;2022-11-15T16:14:11;10.40;99.90
21261;DHT22;10788;47.930;9.766;2022-11-15T16:16:37;10.40;99.90
21261;DHT22;10788;47.930;9.766;2022-11-15T16:19:03;10.50;99.90
21261;DHT22;10788;47.930;9.766;2022-11-15T16:21:29;10.40;99.90
21261;DHT22;10788;47.930;9.766;2022-11-15T16:23:55;10.50;99.90
21261;DHT22;10788;47.930;9.766;2022-11-15T16:26:21;10.40;99.90
21261;DHT22;10788;47.930;9.766;2022-11-15T16:28:48;10.40;99.90
21261;DHT22;10788;47.930;9.766;2022-11-15T16:31:14;10.40;99.90
21261;DHT22;10788;47.930;9.766;2022-11-15T16:33:40;10.40;99.90
21261;DHT22;10788;47.930;9.766;2022-11-15T16:36:21;10.40;99.90
21261;DHT22;10788;47.930;9.766;2022-11-15T16:38:48;10.40;99.90
21261;DHT22;10788;47.930;9.766;2022-11-15T16:41:14;10.40;99.90
21261;DHT22;10788;47.930;9.766;2022-11-15T16:43:46;10.40;99.90
21261;DHT22;10788;47.930;9.766;2022-11-15T16:46:20;10.40;99.90
21261;DHT22;10788;47.930;9.766;2022-11-15T16:48:46;10.40;99.90
21261;DHT22;10788;47.930;9.766;2022-11-15T16:51:12;10.40;99.90
21261;DHT22;10788;47.930;9.766;2022-11-15T16:53:38;10.30;99.90
21261;DHT22;10788;47.930;9.766;2022-11-15T16:56:18;10.50;99.90
21261;DHT22;10788;47.930;9.766;2022-11-15T16:58:45;10.40;99.90
21261;DHT22;10788;47.930;9.766;2022-11-15T17:01:25;10.40;99.90
21261;DHT22;10788;47.930;9.766;2022-11-15T17:03:51;10.20;99.90
21261;DHT22;10788;47.930;9.766;2022-11-15T17:06:17;10.30;99.90
21261;DHT22;10788;47.930;9.766;2022-11-15T17:08:44;10.20;99.90
21261;DHT22;10788;47.930;9.766;2022-11-15T17:11:14;10.20;99.90
21261;DHT22;10788;47.930;9.766;2022-11-15T17:13:40;10.20;99.90
21261;DHT22;10788;47.930;9.766;2022-11-15T17:16:14;10.20;99.90
21261;DHT22;10788;47.930;9.766;2022-11-15T17:18:41;10.20;99.90
21261;DHT22;10788;47.930;9.766;2022-11-15T17:21:12;10.20;99.90
21261;DHT22;10788;47.930;9.766;2022-11-15T17:23:38;10.20;99.90
21261;DHT22;10788;47.930;9.766;2022-11-15T17:26:05;10.10;99.90
21261;DHT22;10788;47.930;9.766;2022-11-15T17:28:34;10.10;99.90
21261;DHT22;10788;47.930;9.766;2022-11-15T17:31:00;10.00;99.90
21261;DHT22;10788;47.930;9.766;2022-11-15T17:33:26;9.90;99.90
21261;DHT22;10788;47.930;9.766;2022-11-15T17:35:56;9.80;99.90
21261;DHT22;10788;47.930;9.766;2022-11-15T17:38:23;9.80;99.90
21261;DHT22;10788;47.930;9.766;2022-11-15T17:40:52;9.80;99.90
21261;DHT22;10788;47.930;9.766;2022-11-15T17:43:23;9.80;99.90
21261;DHT22;10788;47.930;9.766;2022-11-15T17:45:49;9.90;99.90
21261;DHT22;10788;47.930;9.766;2022-11-15T17:48:15;9.80;99.90
21261;DHT22;10788;47.930;9.766;2022-11-15T17:50:40;9.80;99.90
21261;DHT22;10788;47.930;9.766;2022-11-15T17:53:06;9.80;99.90
21261;DHT22;10788;47.930;9.766;2022-11-15T17:55:31;9.80;99.90
21261;DHT22;10788;47.930;9.766;2022-11-15T17:57:57;9.80;99.90
21261;DHT22;10788;47.930;9.766;2022-11-15T18:00:22;10.00;99.90
21261;DHT22;10788;47.930;9.766;2022-11-15T18:02:48;9.90;99.90
21261;DHT22;10788;47.930;9.766;2022-11-15T18:05:14;9.90;99.90
21261;DHT22;10788;47.930;9.766;2022-11-15T18:07:39;9.80;99.90
21261;DHT22;10788;47.930;9.766;2022-11-15T18:10:05;9.70;99.90
21261;DHT22;10788;47.930;9.766;2022-11-15T18:12:31;9.70;99.90